Time;durP1;ratioP1;P1;durP2;ratioP2;P2;SDS_P1;SDS_P2;PMS_P1;PMS_P2;Temp;Humidity;BMP_temperature;BMP_pressure;BME280_temperature;BME280_humidity;BME280_pressure;Samples;Min_cycle;Max_cycle;Signal;HPM_P1;HPM_P2
2022/09/25 00:02:12;;;;;;;6.50;4.10;;;;;;;9.40;79.06;96510.70;108312;1268;22684;-81
2022/09/25 00:04:44;;;;;;;6.80;4.70;;;;;;;9.44;78.89;96504.73;108334;1270;24269;-81
2022/09/25 00:07:15;;;;;;;6.50;4.60;;;;;;;9.47;78.70;96501.95;108305;1268;22536;-81
2022/09/25 00:09:47;;;;;;;5.60;3.90;;;;;;;9.49;78.56;96500.77;108232;1268;31671;-82
2022/09/25 00:12:18;;;;;;;5.70;4.10;;;;;;;9.47;78.43;96502.80;108309;1268;22544;-81
2022/09/25 00:14:52;;;;;;;5.60;4.30;;;;;;;9.44;78.27;96501.55;108262;1270;22672;-81
2022/09/25 00:17:26;;;;;;;5.40;4.40;;;;;;;9.41;78.38;96496.03;108270;1268;22563;-81
2022/09/25 00:19:57;;;;;;;5.50;3.80;;;;;;;9.41;78.27;96500.75;108246;1268;25626;-81
2022/09/25 00:22:29;;;;;;;7.30;4.10;;;;;;;9.41;78.20;96501.17;108280;1268;22542;-81
2022/09/25 00:25:01;;;;;;;5.90;4.30;;;;;;;9.39;78.20;96497.54;108245;1270;22522;-81
2022/09/25 00:27:32;;;;;;;6.20;4.30;;;;;;;9.34;78.21;96494.34;108318;1268;22591;-81
2022/09/25 00:30:05;;;;;;;7.50;4.30;;;;;;;9.28;78.27;96492.84;108265;1268;27248;-81
2022/09/25 00:32:36;;;;;;;7.30;4.60;;;;;;;9.21;78.45;96494.19;108233;1270;24227;-81
2022/09/25 00:35:09;;;;;;;7.30;5.30;;;;;;;9.17;78.52;96491.00;108291;1268;22577;-82
2022/09/25 00:37:40;;;;;;;9.20;5.00;;;;;;;9.15;78.53;96492.38;108317;1268;24377;-81
2022/09/25 00:40:12;;;;;;;5.20;4.00;;;;;;;9.13;78.66;96490.14;108261;1268;27903;-81
2022/09/25 00:42:43;;;;;;;5.50;4.20;;;;;;;9.11;78.70;96492.42;108336;1268;24213;-81
2022/09/25 00:45:19;;;;;;;6.50;4.30;;;;;;;9.09;78.72;96490.75;108328;1268;22531;-81
2022/09/25 00:47:57;;;;;;;6.40;4.40;;;;;;;9.06;78.72;96493.10;108381;1268;23850;-81
2022/09/25 00:50:35;;;;;;;6.60;4.30;;;;;;;9.01;78.92;96493.27;108194;1270;31809;-81
2022/09/25 00:53:11;;;;;;;5.70;4.30;;;;;;;8.96;79.14;96494.30;108238;1270;22532;-81
2022/09/25 00:55:44;;;;;;;7.20;4.30;;;;;;;8.87;79.18;96489.52;108298;1268;23858;-81
2022/09/25 00:58:19;;;;;;;5.40;4.00;;;;;;;8.82;79.38;96488.79;108312;1267;24017;-82
2022/09/25 01:00:51;;;;;;;5.70;4.20;;;;;;;8.77;79.57;96487.06;108223;1270;22683;-81
2022/09/25 01:03:23;;;;;;;6.90;4.20;;;;;;;8.71;79.56;96484.54;108311;1268;22537;-81
2022/09/25 01:05:55;;;;;;;6.20;3.90;;;;;;;8.67;79.72;96488.40;108247;1270;22540;-81
2022/09/25 01:08:28;;;;;;;7.10;3.90;;;;;;;8.66;79.90;96483.81;108204;1270;25377;-80
2022/09/25 01:11:00;;;;;;;4.50;4.00;;;;;;;8.62;80.12;96483.83;108302;1270;25090;-81
2022/09/25 01:13:31;;;;;;;6.50;4.20;;;;;;;8.56;80.23;96481.88;108275;1270;22568;-81
2022/09/25 01:16:09;;;;;;;6.10;3.80;;;;;;;8.52;80.53;96481.69;108225;1270;23201;-81
2022/09/25 01:18:58;;;;;;;6.00;4.40;;;;;;;8.47;80.61;96483.88;108078;1270;26421;-80
2022/09/25 01:21:42;;;;;;;4.60;4.00;;;;;;;8.42;80.69;96481.43;108162;1270;23852;-81
2022/09/25 01:24:48;;;;;;;6.30;3.80;;;;;;;8.38;80.85;96478.80;108250;1270;22580;-81
2022/09/25 01:27:31;;;;;;;5.40;4.80;;;;;;;8.33;81.00;96472.89;108197;1270;22588;-81
2022/09/25 01:30:09;;;;;;;6.50;4.70;;;;;;;8.29;81.20;96472.97;108223;1268;33211;-80
2022/09/25 01:32:55;;;;;;;7.40;5.20;;;;;;;8.22;81.46;96470.13;108325;1268;22538;-81
2022/09/25 01:35:45;;;;;;;7.70;4.80;;;;;;;8.19;81.68;96470.46;108406;1268;24259;-81
2022/09/25 01:38:26;;;;;;;8.80;5.10;;;;;;;8.19;81.64;96474.85;108346;1268;22589;-81
2022/09/25 01:41:05;;;;;;;7.30;4.60;;;;;;;8.18;81.93;96474.27;108363;1268;22570;-81
2022/09/25 01:43:42;;;;;;;6.40;4.70;;;;;;;8.15;82.18;96474.04;108022;1267;25380;-81
2022/09/25 01:46:19;;;;;;;6.20;4.60;;;;;;;8.14;82.41;96471.35;108386;1267;22580;-81
2022/09/25 01:48:54;;;;;;;5.90;4.30;;;;;;;8.16;82.54;96474.30;108320;1268;27751;-81
2022/09/25 01:51:30;;;;;;;6.50;4.80;;;;;;;8.18;82.64;96470.47;108368;1268;22558;-81
2022/09/25 01:54:08;;;;;;;6.50;4.40;;;;;;;8.18;82.85;96466.29;108355;1268;22552;-81
2022/09/25 01:56:45;;;;;;;6.10;4.80;;;;;;;8.21;83.19;96463.27;108357;1267;23933;-81
2022/09/25 01:59:23;;;;;;;5.80;4.40;;;;;;;8.25;83.34;96461.78;108287;1267;25474;-81
2022/09/25 02:01:56;;;;;;;;;;;;;;;8.29;83.30;96468.85;108397;1267;22540;-81
2022/09/25 02:04:32;;;;;;;8.50;4.80;;;;;;;8.29;83.12;96468.00;108386;1267;22523;-81
2022/09/25 02:07:11;;;;;;;5.70;4.20;;;;;;;8.30;83.12;96468.02;108362;1267;22633;-81
2022/09/25 02:09:46;;;;;;;6.30;4.60;;;;;;;8.30;83.16;96466.08;108281;1268;25251;-81
2022/09/25 02:12:24;;;;;;;5.10;4.10;;;;;;;8.30;83.17;96465.88;108347;1267;22953;-81
2022/09/25 02:15:00;;;;;;;6.50;4.40;;;;;;;8.30;83.20;96467.13;108321;1268;22568;-81
2022/09/25 02:20:35;;;;;;;6.20;4.50;;;;;;;8.31;83.31;96469.60;108283;1267;37806;-81
2022/09/25 02:23:18;;;;;;;9.20;4.80;;;;;;;8.26;83.54;96467.27;108389;1267;24621;-81
2022/09/25 02:25:56;;;;;;;6.90;4.60;;;;;;;8.25;83.65;96465.85;108363;1267;22524;-81
2022/09/25 02:28:27;;;;;;;6.40;4.50;;;;;;;8.22;83.76;96464.80;108296;1265;29085;-80
2022/09/25 02:31:01;;;;;;;6.10;4.40;;;;;;;8.20;83.90;96463.28;108399;1267;24151;-81
2022/09/25 02:33:32;;;;;;;5.40;4.20;;;;;;;8.18;84.00;96463.28;108368;1267;22562;-81
2022/09/25 02:36:06;;;;;;;6.40;5.20;;;;;;;8.17;84.11;96464.49;108385;1267;22527;-81
2022/09/25 02:38:37;;;;;;;5.60;4.40;;;;;;;8.15;84.17;96464.80;108293;1267;31373;-81
2022/09/25 02:41:17;;;;;;;6.20;4.30;;;;;;;8.11;84.17;96462.85;108361;1267;22644;-81
2022/09/25 02:44:00;;;;;;;6.20;4.20;;;;;;;8.11;84.39;96459.80;108354;1267;22615;-81
2022/09/25 02:46:39;;;;;;;6.50;5.10;;;;;;;8.07;84.53;96456.27;108384;1267;22611;-81
2022/09/25 02:49:22;;;;;;;7.60;5.30;;;;;;;8.04;84.59;96455.70;108311;1268;31676;-81
2022/09/25 02:52:04;;;;;;;6.50;4.80;;;;;;;8.06;84.68;96458.48;108340;1267;23858;-81
2022/09/25 02:54:45;;;;;;;6.70;4.90;;;;;;;8.09;84.79;96454.77;108387;1265;22614;-82
2022/09/25 02:57:26;;;;;;;6.00;4.50;;;;;;;8.16;84.82;96456.67;108395;1267;24279;-81
2022/09/25 03:00:01;;;;;;;5.30;4.30;;;;;;;8.24;84.80;96449.80;108329;1267;26271;-81
2022/09/25 03:02:37;;;;;;;7.10;4.80;;;;;;;8.29;84.64;96450.31;108393;1267;23299;-81
2022/09/25 03:05:12;;;;;;;6.10;4.30;;;;;;;8.29;84.79;96448.67;108373;1267;23948;-81
2022/09/25 03:10:35;;;;;;;6.00;4.60;;;;;;;8.31;84.78;96444.67;108292;1267;33271;-81
2022/09/25 03:13:19;;;;;;;8.10;5.20;;;;;;;8.30;84.73;96441.34;108297;1270;22538;-81
2022/09/25 03:15:57;;;;;;;8.70;5.30;;;;;;;8.23;84.69;96442.25;108394;1267;22598;-81
2022/09/25 03:18:30;;;;;;;8.30;4.90;;;;;;;8.19;84.74;96439.09;108340;1267;25769;-81
2022/09/25 03:21:04;;;;;;;7.10;5.40;;;;;;;8.15;84.95;96438.92;108406;1267;22542;-81
2022/09/25 03:23:35;;;;;;;7.10;5.10;;;;;;;8.12;84.94;96436.45;108401;1267;22689;-81
2022/09/25 03:26:07;;;;;;;6.00;4.90;;;;;;;8.08;85.18;96436.04;108386;1267;24242;-81
2022/09/25 03:28:38;;;;;;;6.90;4.80;;;;;;;8.07;85.09;96435.88;108320;1267;28017;-80
2022/09/25 03:31:12;;;;;;;5.80;4.10;;;;;;;8.06;85.12;96436.63;108346;1267;24199;-81
2022/09/25 03:33:44;;;;;;;5.80;4.60;;;;;;;8.06;85.40;96432.24;108361;1267;22561;-81
2022/09/25 03:36:19;;;;;;;8.40;5.00;;;;;;;8.07;85.35;96433.09;108324;1267;24299;-81
2022/09/25 03:38:51;;;;;;;7.50;4.60;;;;;;;8.09;85.39;96435.25;108339;1267;26051;-81
2022/09/25 03:41:25;;;;;;;5.70;4.80;;;;;;;8.09;85.22;96430.13;108353;1268;22579;-81
2022/09/25 03:43:57;;;;;;;7.90;4.80;;;;;;;8.10;85.28;96426.00;108373;1267;22562;-81
2022/09/25 03:46:29;;;;;;;6.50;4.90;;;;;;;8.15;85.19;96424.30;108354;1268;22481;-81
2022/09/25 03:49:02;;;;;;;6.50;4.80;;;;;;;8.19;85.18;96422.77;108324;1267;26542;-81
2022/09/25 03:51:34;;;;;;;6.50;4.90;;;;;;;8.21;85.13;96424.77;108425;1267;22533;-81
2022/09/25 03:54:06;;;;;;;12.40;5.70;;;;;;;8.23;84.94;96425.08;108368;1267;22565;-81
2022/09/25 03:56:39;;;;;;;6.70;5.10;;;;;;;8.25;84.92;96426.82;108380;1267;22711;-81
2022/09/25 03:59:11;;;;;;;6.80;4.80;;;;;;;8.23;84.95;96423.87;108332;1267;30478;-81
2022/09/25 04:01:44;;;;;;;6.30;4.30;;;;;;;8.25;84.92;96428.19;108369;1267;22617;-81
2022/09/25 04:04:18;;;;;;;7.00;5.40;;;;;;;8.27;85.13;96426.96;108330;1268;22610;-81
2022/09/25 04:06:49;;;;;;;6.80;5.40;;;;;;;8.24;85.15;96428.52;108364;1267;22541;-81
2022/09/25 04:09:20;;;;;;;6.80;4.60;;;;;;;8.29;84.99;96424.65;108306;1268;27032;-81
2022/09/25 04:11:54;;;;;;;6.70;5.00;;;;;;;8.33;84.96;96422.65;108361;1267;22704;-81
2022/09/25 04:14:25;;;;;;;6.70;4.80;;;;;;;8.37;84.93;96419.64;108361;1267;25449;-81
2022/09/25 04:16:59;;;;;;;8.00;5.30;;;;;;;8.35;85.01;96417.48;108362;1265;22626;-81
2022/09/25 04:19:30;;;;;;;8.30;4.90;;;;;;;8.31;84.91;96420.91;108186;1270;29624;-81
2022/09/25 04:22:01;;;;;;;8.90;5.40;;;;;;;8.31;84.96;96420.85;108348;1268;22703;-81
2022/09/25 04:24:50;;;;;;;6.20;5.00;;;;;;;8.32;84.75;96419.11;108379;1267;22663;-81
2022/09/25 04:27:23;;;;;;;7.50;4.80;;;;;;;8.36;84.81;96423.49;108394;1268;22836;-81
2022/09/25 04:29:57;;;;;;;6.30;4.80;;;;;;;8.37;84.88;96420.86;108314;1267;27849;-81
2022/09/25 04:35:16;;;;;;;6.60;5.10;;;;;;;8.43;84.63;96417.50;108276;1268;22561;-81
2022/09/25 04:37:48;;;;;;;6.30;5.00;;;;;;;8.46;84.66;96427.55;108374;1267;22641;-81
2022/09/25 04:40:20;;;;;;;8.40;5.90;;;;;;;8.48;84.60;96424.42;108352;1267;26906;-81
2022/09/25 04:42:57;;;;;;;7.00;5.00;;;;;;;8.48;84.52;96424.27;108340;1268;22706;-81
2022/09/25 04:45:29;;;;;;;6.90;5.00;;;;;;;8.47;84.52;96423.89;108390;1267;25371;-81
2022/09/25 04:48:02;;;;;;;7.50;5.20;;;;;;;8.49;84.49;96427.48;108366;1265;22596;-81
2022/09/25 04:50:34;;;;;;;8.00;5.40;;;;;;;8.49;84.55;96427.44;108321;1267;25067;-81
2022/09/25 04:53:05;;;;;;;6.60;4.50;;;;;;;8.49;84.50;96424.68;108380;1265;22551;-81
2022/09/25 04:55:38;;;;;;;7.10;5.30;;;;;;;8.51;84.58;96425.15;108292;1268;24071;-81
2022/09/25 04:58:09;;;;;;;6.10;4.50;;;;;;;8.54;84.54;96420.64;108328;1268;22529;-81
2022/09/25 05:00:41;;;;;;;6.50;4.60;;;;;;;8.55;84.48;96419.01;108323;1267;25260;-81
2022/09/25 05:03:12;;;;;;;6.40;4.80;;;;;;;8.57;84.48;96416.66;108422;1267;22644;-81
2022/09/25 05:05:44;;;;;;;7.20;5.00;;;;;;;8.57;84.61;96420.36;108331;1268;22613;-81
2022/09/25 05:08:15;;;;;;;6.20;4.30;;;;;;;8.61;84.91;96418.57;108348;1268;22538;-81
2022/09/25 05:10:46;;;;;;;5.40;4.40;;;;;;;8.65;85.11;96419.82;108259;1268;30742;-81
2022/09/25 05:13:18;;;;;;;5.10;4.40;;;;;;;8.68;85.36;96418.42;108373;1267;24192;-81
2022/09/25 05:15:49;;;;;;;8.20;5.60;;;;;;;8.70;85.40;96419.80;108295;1268;23929;-81
2022/09/25 05:18:23;;;;;;;8.40;5.20;;;;;;;8.73;85.29;96419.31;108305;1267;26312;-77
2022/09/25 05:20:58;;;;;;;5.20;3.90;;;;;;;8.78;85.36;96421.41;108313;1268;24365;-81
2022/09/25 05:23:30;;;;;;;8.30;4.80;;;;;;;8.84;84.92;96417.66;108343;1268;22554;-81
2022/09/25 05:26:01;;;;;;;4.90;4.00;;;;;;;8.91;84.69;96408.40;108400;1267;24221;-81
2022/09/25 05:28:33;;;;;;;5.60;4.60;;;;;;;8.96;84.50;96407.09;108324;1267;34448;-81
2022/09/25 05:31:06;;;;;;;5.20;4.10;;;;;;;9.01;84.29;96407.55;108349;1268;25463;-81
2022/09/25 05:33:38;;;;;;;6.20;4.20;;;;;;;9.09;84.16;96408.24;108326;1268;24245;-81
2022/09/25 05:36:10;;;;;;;5.10;3.80;;;;;;;9.18;84.12;96409.25;108378;1267;22540;-81
2022/09/25 05:38:42;;;;;;;6.30;4.50;;;;;;;9.30;83.91;96410.66;108321;1267;29054;-81
2022/09/25 05:41:14;;;;;;;5.70;3.90;;;;;;;9.44;83.55;96413.74;108349;1268;22658;-82
2022/09/25 05:43:49;;;;;;;6.30;3.70;;;;;;;9.60;83.45;96412.47;108316;1268;22553;-81
2022/09/25 05:46:20;;;;;;;4.70;3.60;;;;;;;9.79;83.52;96417.13;108335;1268;22555;-81
2022/09/25 05:48:51;;;;;;;5.20;3.70;;;;;;;9.96;82.65;96420.65;108274;1268;26752;-81
2022/09/25 05:51:22;;;;;;;5.70;4.10;;;;;;;10.15;82.60;96422.91;108377;1267;22529;-81
2022/09/25 05:53:55;;;;;;;4.40;3.50;;;;;;;10.34;82.58;96423.02;108378;1268;22545;-81
2022/09/25 05:56:26;;;;;;;4.80;3.40;;;;;;;10.43;81.78;96420.12;108360;1267;23417;-82
2022/09/25 05:58:58;;;;;;;4.80;3.70;;;;;;;10.52;81.43;96419.77;108321;1267;27431;-81
2022/09/25 06:01:29;;;;;;;6.20;3.40;;;;;;;10.59;80.62;96421.16;108372;1267;22554;-81
2022/09/25 06:04:00;;;;;;;4.90;3.70;;;;;;;10.66;80.34;96425.59;108400;1267;22576;-82
2022/09/25 06:06:33;;;;;;;5.70;3.80;;;;;;;10.69;79.90;96429.31;108380;1267;22525;-82
2022/09/25 06:09:04;;;;;;;4.20;3.10;;;;;;;10.70;79.68;96430.44;108336;1267;26741;-81
2022/09/25 06:11:36;;;;;;;4.80;3.70;;;;;;;10.71;79.08;96429.73;108394;1267;22578;-82
2022/09/25 06:14:07;;;;;;;4.90;3.70;;;;;;;10.70;78.68;96423.59;108358;1267;24225;-82
2022/09/25 06:16:39;;;;;;;4.40;3.40;;;;;;;10.74;78.96;96422.59;108409;1267;22662;-81
2022/09/25 06:19:10;;;;;;;4.10;3.70;;;;;;;10.82;78.97;96419.89;108332;1267;36690;-81
2022/09/25 06:21:42;;;;;;;5.20;3.60;;;;;;;10.88;78.83;96419.19;108399;1267;22540;-82
2022/09/25 06:24:16;;;;;;;4.60;3.40;;;;;;;10.96;78.42;96422.67;108341;1268;22519;-81
2022/09/25 06:26:48;;;;;;;3.90;3.40;;;;;;;11.00;77.97;96421.63;108394;1267;23937;-82
2022/09/25 06:29:19;;;;;;;234.80;99.60;;;;;;;11.05;77.95;96417.85;108320;1267;31943;-81
2022/09/25 06:31:53;;;;;;;56.10;25.80;;;;;;;11.07;78.13;96419.36;108388;1267;22598;-82
2022/09/25 06:34:28;;;;;;;29.40;14.30;;;;;;;11.10;77.74;96420.06;108398;1268;24180;-82
2022/09/25 06:36:59;;;;;;;10.30;6.10;;;;;;;11.13;77.60;96420.67;108315;1268;25273;-82
2022/09/25 06:39:32;;;;;;;36.50;19.90;;;;;;;11.21;77.52;96414.60;108361;1268;26401;-82
2022/09/25 06:42:04;;;;;;;21.20;12.80;;;;;;;11.28;76.67;96417.39;108377;1267;22557;-82
2022/09/25 06:44:35;;;;;;;27.20;18.80;;;;;;;11.30;76.42;96416.23;108348;1268;23325;-82
2022/09/25 06:47:07;;;;;;;5.00;3.50;;;;;;;11.32;76.03;96413.51;108402;1267;24173;-82
2022/09/25 06:49:39;;;;;;;4.60;3.60;;;;;;;11.30;75.39;96415.86;108323;1267;35601;-82
2022/09/25 06:52:11;;;;;;;5.00;3.50;;;;;;;11.32;75.55;96415.73;108383;1265;23846;-81
2022/09/25 06:54:43;;;;;;;5.00;3.90;;;;;;;11.35;75.40;96413.83;108386;1267;22712;-82
2022/09/25 06:57:14;;;;;;;4.60;3.70;;;;;;;11.40;75.34;96412.80;108321;1268;22655;-82
2022/09/25 06:59:46;;;;;;;4.30;3.60;;;;;;;11.46;75.10;96415.36;108390;1265;25602;-82
2022/09/25 07:05:08;;;;;;;4.30;3.70;;;;;;;11.69;74.86;96404.94;108391;1267;22561;-82
2022/09/25 07:07:39;;;;;;;4.50;4.00;;;;;;;11.94;74.72;96405.98;108338;1270;22965;-82
2022/09/25 07:10:11;;;;;;;3.90;3.20;;;;;;;12.35;74.06;96403.47;108346;1267;24622;-82
2022/09/25 07:12:44;;;;;;;5.00;3.70;;;;;;;12.59;73.35;96402.84;108332;1268;23997;-83
2022/09/25 07:15:16;;;;;;;4.40;3.50;;;;;;;12.77;72.99;96407.55;108350;1268;22614;-82
2022/09/25 07:17:48;;;;;;;5.10;3.30;;;;;;;12.79;71.89;96405.09;108330;1268;22543;-83
2022/09/25 07:20:20;;;;;;;7.20;4.90;;;;;;;12.80;71.90;96409.77;108353;1266;24219;-82
2022/09/25 07:22:53;;;;;;;3.80;3.40;;;;;;;12.82;71.99;96409.54;108441;1267;22546;-82
2022/09/25 07:25:26;;;;;;;4.20;3.20;;;;;;;12.82;71.89;96411.28;108362;1267;25144;-82
2022/09/25 07:27:59;;;;;;;4.40;3.40;;;;;;;12.78;71.02;96409.13;108294;1269;22563;-82
2022/09/25 07:30:31;;;;;;;3.90;3.50;;;;;;;12.64;71.17;96407.38;108271;1268;31156;-82
2022/09/25 07:33:02;;;;;;;4.50;3.30;;;;;;;12.65;71.72;96411.02;108415;1268;23035;-83
2022/09/25 07:35:38;;;;;;;4.50;3.50;;;;;;;12.66;71.33;96406.70;108387;1267;22543;-83
2022/09/25 07:38:10;;;;;;;6.80;3.30;;;;;;;12.66;71.33;96405.86;108307;1268;25374;-83
2022/09/25 07:40:41;;;;;;;4.40;3.30;;;;;;;12.70;70.83;96401.36;108326;1267;31138;-82
2022/09/25 07:43:13;;;;;;;4.20;3.50;;;;;;;12.92;71.12;96401.92;108401;1267;22548;-82
2022/09/25 07:45:52;;;;;;;5.10;3.50;;;;;;;13.13;70.31;96399.46;108466;1267;22522;-81
2022/09/25 07:48:24;;;;;;;5.50;3.40;;;;;;;13.17;69.60;96403.16;108279;1268;39809;-80
2022/09/25 07:50:59;;;;;;;4.00;3.40;;;;;;;13.16;69.53;96407.08;108286;1269;22679;-81
2022/09/25 07:53:30;;;;;;;4.30;3.80;;;;;;;13.14;69.72;96411.22;108314;1270;22544;-81
2022/09/25 07:56:03;;;;;;;6.50;3.80;;;;;;;13.08;70.01;96417.67;108326;1270;22695;-82
2022/09/25 07:58:35;;;;;;;5.30;4.20;;;;;;;13.00;69.61;96413.74;108111;1270;25755;-81
2022/09/25 08:01:08;;;;;;;5.60;3.80;;;;;;;12.84;69.57;96412.36;108325;1270;22541;-82
2022/09/25 08:03:40;;;;;;;4.20;3.70;;;;;;;12.76;69.63;96415.05;108357;1270;22640;-82
2022/09/25 08:06:13;;;;;;;4.70;3.80;;;;;;;12.68;70.14;96414.73;108316;1270;24047;-81
2022/09/25 08:08:44;;;;;;;4.30;3.90;;;;;;;12.66;70.13;96412.50;108206;1270;46634;-82
2022/09/25 08:11:17;;;;;;;7.00;4.30;;;;;;;12.57;69.81;96409.02;108272;1270;22527;-81
2022/09/25 08:13:49;;;;;;;5.90;4.30;;;;;;;12.54;70.17;96407.91;108258;1270;22561;-81
2022/09/25 08:16:22;;;;;;;4.60;3.60;;;;;;;12.55;70.61;96403.63;108174;1270;23048;-82
2022/09/25 08:18:54;;;;;;;5.90;4.10;;;;;;;12.61;70.79;96401.20;108127;1270;24150;-81
2022/09/25 08:21:26;;;;;;;4.60;3.60;;;;;;;12.70;71.06;96402.48;108266;1270;24228;-81
2022/09/25 08:23:57;;;;;;;4.50;3.80;;;;;;;12.79;71.27;96392.08;108235;1270;22525;-82
2022/09/25 08:26:30;;;;;;;6.10;4.40;;;;;;;12.87;71.05;96396.45;108159;1270;24432;-82
2022/09/25 08:29:04;;;;;;;5.40;4.30;;;;;;;12.99;71.41;96398.44;108178;1270;31638;-81
2022/09/25 08:31:36;;;;;;;5.00;4.10;;;;;;;13.11;71.55;96395.25;108278;1270;24216;-81
2022/09/25 08:34:09;;;;;;;4.80;3.90;;;;;;;13.23;71.24;96391.29;108236;1270;22547;-81
2022/09/25 08:36:40;;;;;;;4.40;3.80;;;;;;;13.33;71.09;96389.93;108166;1270;22561;-81
2022/09/25 08:39:11;;;;;;;4.00;3.50;;;;;;;13.47;70.86;96385.91;108190;1270;31265;-82
2022/09/25 08:41:48;;;;;;;5.20;3.70;;;;;;;13.62;70.90;96384.02;108335;1270;22542;-81
2022/09/25 08:44:27;;;;;;;5.40;4.20;;;;;;;13.73;70.36;96382.05;108323;1268;22608;-82
2022/09/25 08:49:59;;;;;;;5.90;4.20;;;;;;;13.75;70.74;96377.96;108118;1270;34251;-82
2022/09/25 08:52:31;;;;;;;6.10;3.60;;;;;;;13.78;70.82;96378.95;108218;1270;22562;-82
2022/09/25 08:55:03;;;;;;;3.60;3.30;;;;;;;13.75;70.63;96375.86;108174;1270;22575;-82
2022/09/25 08:57:39;;;;;;;4.50;3.80;;;;;;;13.83;71.23;96370.18;108242;1270;25377;-81
2022/09/25 09:00:19;;;;;;;5.70;4.10;;;;;;;13.96;71.21;96359.19;108250;1268;32242;-81
2022/09/25 09:02:54;;;;;;;5.30;3.80;;;;;;;14.23;71.45;96364.24;108496;1267;23324;-82
2022/09/25 09:05:29;;;;;;;4.90;4.10;;;;;;;14.35;70.62;96362.38;108431;1267;22690;-82
2022/09/25 09:08:04;;;;;;;5.80;3.90;;;;;;;14.39;70.81;96358.52;108448;1268;22554;-82
2022/09/25 09:10:40;;;;;;;5.30;4.40;;;;;;;14.51;70.64;96349.45;108292;1268;24242;-82
2022/09/25 09:13:19;;;;;;;4.30;3.50;;;;;;;14.55;70.33;96347.20;108342;1270;22618;-82
2022/09/25 09:15:53;;;;;;;4.70;3.40;;;;;;;14.72;70.14;96345.91;108354;1268;23920;-82
2022/09/25 09:18:26;;;;;;;5.90;3.70;;;;;;;14.84;69.85;96353.52;108380;1267;31916;-81
2022/09/25 09:21:02;;;;;;;4.20;3.30;;;;;;;15.03;69.48;96354.27;108414;1267;25248;-82
2022/09/25 09:23:40;;;;;;;3.90;3.40;;;;;;;15.17;68.91;96352.86;108409;1268;22651;-82
2022/09/25 09:26:20;;;;;;;4.70;3.60;;;;;;;15.36;68.93;96352.86;108323;1270;22558;-82
2022/09/25 09:29:20;;;;;;;4.20;3.60;;;;;;;15.61;69.09;96353.06;108244;1270;27610;-81
2022/09/25 09:32:03;;;;;;;4.90;3.70;;;;;;;15.77;68.30;96345.73;108303;1270;24282;-82
2022/09/25 09:34:56;;;;;;;5.30;3.30;;;;;;;15.95;68.89;96343.73;108275;1270;25211;-82
2022/09/25 09:37:35;;;;;;;4.00;3.50;;;;;;;16.32;68.75;96341.27;108267;1270;23903;-82
2022/09/25 09:40:34;;;;;;;3.90;3.40;;;;;;;16.71;68.29;96337.40;108227;1270;28349;-82
2022/09/25 09:43:30;;;;;;;3.60;3.10;;;;;;;16.93;67.28;96338.01;108269;1270;23706;-81
2022/09/25 09:46:14;;;;;;;3.70;3.20;;;;;;;16.92;66.76;96333.23;108256;1270;22530;-81
2022/09/25 09:48:55;;;;;;;3.80;3.20;;;;;;;16.69;65.45;96326.45;108215;1270;30670;-81
2022/09/25 09:51:27;;;;;;;;;;;;;;;16.61;66.31;96324.14;108265;1270;22522;-81
2022/09/25 09:54:04;;;;;;;4.70;3.40;;;;;;;16.78;66.89;96328.13;108213;1270;25370;-81
2022/09/25 09:56:37;;;;;;;4.40;3.40;;;;;;;17.01;66.91;96321.77;108256;1270;22678;-81
2022/09/25 09:59:15;;;;;;;4.00;3.10;;;;;;;17.14;66.13;96320.06;108244;1270;25234;-82
2022/09/25 10:01:54;;;;;;;4.30;2.90;;;;;;;17.20;65.75;96316.76;108269;1270;24238;-81
2022/09/25 10:04:31;;;;;;;3.90;3.00;;;;;;;17.25;66.07;96323.83;108283;1270;22646;-81
2022/09/25 10:07:07;;;;;;;4.40;3.00;;;;;;;17.16;64.01;96330.18;108270;1270;24982;-81
2022/09/25 10:09:41;;;;;;;5.10;3.10;;;;;;;16.83;63.67;96333.42;108211;1270;31414;-81
2022/09/25 10:12:18;;;;;;;3.20;2.90;;;;;;;16.54;63.51;96325.16;108312;1270;22527;-82
2022/09/25 10:14:50;;;;;;;6.60;3.90;;;;;;;16.28;63.90;96323.77;108254;1270;25371;-82
2022/09/25 10:17:24;;;;;;;3.40;3.00;;;;;;;16.27;64.50;96321.41;108293;1270;22666;-82
2022/09/25 10:19:58;;;;;;;3.70;3.10;;;;;;;16.38;64.95;96321.02;108249;1270;31239;-81
2022/09/25 10:22:37;;;;;;;3.70;3.00;;;;;;;16.35;64.33;96315.97;108324;1270;22590;-82
2022/09/25 10:25:09;;;;;;;5.80;3.10;;;;;;;16.41;65.53;96314.27;108194;1268;22540;-81
2022/09/25 10:27:44;;;;;;;4.50;3.50;;;;;;;16.67;66.19;96314.24;108308;1270;25244;-82
2022/09/25 10:30:21;;;;;;;3.70;3.40;;;;;;;16.79;65.11;96315.31;108250;1270;31185;-81
2022/09/25 10:33:01;;;;;;;3.30;3.00;;;;;;;16.67;64.56;96312.52;108322;1270;22583;-82
2022/09/25 10:35:47;;;;;;;4.60;3.40;;;;;;;16.72;65.76;96306.59;108236;1269;22608;-82
2022/09/25 10:38:35;;;;;;;3.60;3.30;;;;;;;16.76;64.91;96307.77;108306;1269;22762;-82
2022/09/25 10:41:09;;;;;;;4.30;3.20;;;;;;;16.49;64.05;96303.71;108343;1269;22520;-82
2022/09/25 10:43:53;;;;;;;4.40;3.50;;;;;;;16.22;64.19;96307.39;108284;1269;22561;-82
2022/09/25 10:52:14;;;;;;;4.70;3.40;;;;;;;16.37;66.65;96305.76;108190;1270;25381;-82
2022/09/25 10:54:46;;;;;;;4.10;3.40;;;;;;;16.38;66.77;96309.31;108297;1270;25414;-82
2022/09/25 10:57:26;;;;;;;3.50;3.20;;;;;;;16.38;66.95;96312.30;108270;1270;24102;-82
2022/09/25 10:59:57;;;;;;;4.10;3.60;;;;;;;16.35;66.89;96315.88;108188;1270;29648;-82
2022/09/25 11:02:37;;;;;;;4.50;3.60;;;;;;;16.20;66.76;96313.73;108266;1270;24185;-82
2022/09/25 11:05:19;;;;;;;3.60;3.30;;;;;;;16.01;66.69;96301.44;108276;1270;24283;-81
2022/09/25 11:07:53;;;;;;;3.80;3.40;;;;;;;15.88;67.06;96294.65;108321;1270;22546;-82
2022/09/25 11:10:28;;;;;;;6.70;3.70;;;;;;;15.85;67.32;96294.03;108084;1270;36180;-82
2022/09/25 11:13:09;;;;;;;4.30;3.60;;;;;;;15.78;67.77;96295.23;108326;1270;22556;-82
2022/09/25 11:15:47;;;;;;;5.70;3.90;;;;;;;15.75;68.12;96293.23;108282;1270;22537;-82
2022/09/25 11:18:36;;;;;;;5.40;3.90;;;;;;;15.74;68.33;96296.48;108282;1270;22545;-82
2022/09/25 11:21:19;;;;;;;5.70;4.90;;;;;;;15.73;68.88;96292.71;108273;1270;23297;-83
2022/09/25 11:24:14;;;;;;;7.00;5.30;;;;;;;15.71;69.16;96296.18;108279;1270;22699;-83
2022/09/25 11:26:51;;;;;;;15.20;10.70;;;;;;;15.70;69.43;96293.67;108275;1270;23062;-82
2022/09/25 11:29:34;;;;;;;15.20;10.30;;;;;;;15.60;69.15;96294.90;108230;1268;26773;-82
2022/09/25 11:32:16;;;;;;;12.40;7.60;;;;;;;15.47;69.15;96297.39;108284;1270;25313;-82
2022/09/25 11:35:01;;;;;;;23.90;14.70;;;;;;;15.32;69.30;96298.19;108308;1268;22882;-82
2022/09/25 11:37:43;;;;;;;23.30;14.70;;;;;;;15.25;70.20;96295.46;108334;1268;24351;-83
2022/09/25 11:43:39;;;;;;;14.40;8.50;;;;;;;15.14;70.37;96286.11;108288;1270;22628;-82
2022/09/25 11:46:20;;;;;;;17.60;10.20;;;;;;;15.07;70.63;96283.11;108200;1270;22535;-83
2022/09/25 11:49:00;;;;;;;14.00;9.20;;;;;;;15.03;71.05;96280.04;108150;1268;40252;-82
2022/09/25 11:52:01;;;;;;;9.30;6.80;;;;;;;14.98;71.39;96281.52;108323;1268;22650;-82
2022/09/25 11:54:43;;;;;;;5.10;3.70;;;;;;;14.91;71.73;96279.14;108212;1270;22544;-83
2022/09/25 11:57:23;;;;;;;5.50;4.20;;;;;;;14.83;72.26;96276.78;108352;1270;22934;-83
2022/09/25 12:00:07;;;;;;;8.70;5.60;;;;;;;14.77;72.65;96272.91;108083;1270;27372;-83
2022/09/25 12:02:54;;;;;;;5.90;5.30;;;;;;;14.69;72.81;96277.05;108259;1270;22552;-82
2022/09/25 12:05:50;;;;;;;5.70;5.20;;;;;;;14.62;73.28;96276.62;108337;1268;22532;-82
2022/09/25 12:08:35;;;;;;;4.90;4.40;;;;;;;14.56;73.65;96272.77;108220;1270;24542;-81
2022/09/25 12:11:15;;;;;;;5.10;4.50;;;;;;;14.50;74.24;96272.91;108228;1270;22538;-82
2022/09/25 12:13:54;;;;;;;5.30;4.60;;;;;;;14.45;74.27;96263.98;108311;1268;22541;-82
2022/09/25 12:16:35;;;;;;;6.70;4.70;;;;;;;14.44;74.73;96257.83;108358;1270;23848;-82
2022/09/25 12:19:30;;;;;;;4.40;3.80;;;;;;;14.43;75.13;96254.76;108179;1270;29123;-82
2022/09/25 12:22:12;;;;;;;5.10;4.10;;;;;;;14.39;75.53;96254.00;108309;1268;22563;-82
2022/09/25 12:24:59;;;;;;;6.00;4.20;;;;;;;14.41;75.91;96248.58;108240;1270;22618;-82
2022/09/25 12:27:43;;;;;;;5.80;4.60;;;;;;;14.43;76.05;96240.98;108297;1270;22546;-82
2022/09/25 12:30:21;;;;;;;7.70;5.10;;;;;;;14.48;76.35;96235.91;108248;1268;27000;-83
2022/09/25 12:33:18;;;;;;;6.40;5.20;;;;;;;14.54;76.41;96229.39;108327;1268;22551;-82